sensor_id;sensor_type;location;lat;lon;timestamp;P1;durP1;ratioP1;P2;durP2;ratioP2
12818;SDS011;6474;53.474;9.894;2023-01-28T00:01:58;0.40;;;0.40;;
12818;SDS011;6474;53.474;9.894;2023-01-28T00:04:27;0.67;;;0.67;;
12818;SDS011;6474;53.474;9.894;2023-01-28T00:06:54;1.27;;;1.27;;
12818;SDS011;6474;53.474;9.894;2023-01-28T00:09:22;0.77;;;0.77;;
12818;SDS011;6474;53.474;9.894;2023-01-28T00:11:50;0.60;;;0.60;;
12818;SDS011;6474;53.474;9.894;2023-01-28T00:14:18;0.73;;;0.73;;
12818;SDS011;6474;53.474;9.894;2023-01-28T00:16:45;0.87;;;0.83;;
12818;SDS011;6474;53.474;9.894;2023-01-28T00:19:13;0.80;;;0.80;;
12818;SDS011;6474;53.474;9.894;2023-01-28T00:21:42;1.07;;;0.97;;
12818;SDS011;6474;53.474;9.894;2023-01-28T00:24:10;2.43;;;1.03;;
12818;SDS011;6474;53.474;9.894;2023-01-28T00:26:38;0.60;;;0.50;;
12818;SDS011;6474;53.474;9.894;2023-01-28T00:29:06;1.40;;;1.17;;
12818;SDS011;6474;53.474;9.894;2023-01-28T00:31:34;1.00;;;1.00;;
12818;SDS011;6474;53.474;9.894;2023-01-28T00:34:02;8.70;;;1.47;;
12818;SDS011;6474;53.474;9.894;2023-01-28T00:36:30;5.17;;;1.53;;
12818;SDS011;6474;53.474;9.894;2023-01-28T00:39:00;3.13;;;1.33;;
12818;SDS011;6474;53.474;9.894;2023-01-28T00:41:28;1.97;;;1.50;;
12818;SDS011;6474;53.474;9.894;2023-01-28T00:43:56;0.80;;;0.80;;
12818;SDS011;6474;53.474;9.894;2023-01-28T00:46:24;0.63;;;0.63;;
12818;SDS011;6474;53.474;9.894;2023-01-28T00:48:53;1.00;;;1.00;;
12818;SDS011;6474;53.474;9.894;2023-01-28T00:51:21;0.80;;;0.80;;
12818;SDS011;6474;53.474;9.894;2023-01-28T00:53:49;1.13;;;1.07;;
12818;SDS011;6474;53.474;9.894;2023-01-28T00:56:18;4.03;;;1.67;;
12818;SDS011;6474;53.474;9.894;2023-01-28T00:58:46;1.37;;;1.33;;
12818;SDS011;6474;53.474;9.894;2023-01-28T01:01:14;1.50;;;0.80;;
12818;SDS011;6474;53.474;9.894;2023-01-28T01:03:44;6.80;;;1.33;;
12818;SDS011;6474;53.474;9.894;2023-01-28T01:06:13;1.10;;;0.83;;
12818;SDS011;6474;53.474;9.894;2023-01-28T01:08:41;1.13;;;1.13;;
12818;SDS011;6474;53.474;9.894;2023-01-28T01:11:15;0.90;;;0.90;;
12818;SDS011;6474;53.474;9.894;2023-01-28T01:13:48;0.50;;;0.50;;
12818;SDS011;6474;53.474;9.894;2023-01-28T01:16:17;1.70;;;1.27;;
12818;SDS011;6474;53.474;9.894;2023-01-28T01:18:45;1.83;;;1.60;;
12818;SDS011;6474;53.474;9.894;2023-01-28T01:21:14;1.73;;;0.80;;
12818;SDS011;6474;53.474;9.894;2023-01-28T01:23:43;0.73;;;0.73;;
12818;SDS011;6474;53.474;9.894;2023-01-28T01:26:12;0.50;;;0.50;;
12818;SDS011;6474;53.474;9.894;2023-01-28T01:28:42;0.40;;;0.40;;
12818;SDS011;6474;53.474;9.894;2023-01-28T01:31:10;0.40;;;0.40;;
12818;SDS011;6474;53.474;9.894;2023-01-28T01:33:40;0.83;;;0.53;;
12818;SDS011;6474;53.474;9.894;2023-01-28T01:36:08;1.67;;;1.30;;
12818;SDS011;6474;53.474;9.894;2023-01-28T01:38:37;1.07;;;0.97;;
12818;SDS011;6474;53.474;9.894;2023-01-28T01:41:06;0.50;;;0.50;;
12818;SDS011;6474;53.474;9.894;2023-01-28T01:43:46;0.77;;;0.50;;
12818;SDS011;6474;53.474;9.894;2023-01-28T01:46:16;0.30;;;0.30;;
12818;SDS011;6474;53.474;9.894;2023-01-28T01:48:48;0.93;;;0.90;;
12818;SDS011;6474;53.474;9.894;2023-01-28T01:51:17;0.13;;;0.13;;
12818;SDS011;6474;53.474;9.894;2023-01-28T01:53:51;0.50;;;0.50;;
12818;SDS011;6474;53.474;9.894;2023-01-28T01:56:24;0.30;;;0.30;;
12818;SDS011;6474;53.474;9.894;2023-01-28T01:58:57;0.47;;;0.47;;
12818;SDS011;6474;53.474;9.894;2023-01-28T02:01:26;0.43;;;0.43;;
12818;SDS011;6474;53.474;9.894;2023-01-28T02:03:58;0.50;;;0.50;;
12818;SDS011;6474;53.474;9.894;2023-01-28T02:06:30;0.57;;;0.57;;
12818;SDS011;6474;53.474;9.894;2023-01-28T02:08:59;0.43;;;0.43;;
12818;SDS011;6474;53.474;9.894;2023-01-28T02:11:29;0.30;;;0.30;;
12818;SDS011;6474;53.474;9.894;2023-01-28T02:14:01;0.80;;;0.80;;
12818;SDS011;6474;53.474;9.894;2023-01-28T02:16:32;1.33;;;0.67;;
12818;SDS011;6474;53.474;9.894;2023-01-28T02:19:00;0.97;;;0.60;;
12818;SDS011;6474;53.474;9.894;2023-01-28T02:21:38;0.93;;;0.93;;
12818;SDS011;6474;53.474;9.894;2023-01-28T02:24:41;0.80;;;0.80;;
12818;SDS011;6474;53.474;9.894;2023-01-28T02:27:26;1.13;;;0.90;;
12818;SDS011;6474;53.474;9.894;2023-01-28T02:30:00;1.30;;;0.80;;
12818;SDS011;6474;53.474;9.894;2023-01-28T02:32:34;0.60;;;0.60;;
12818;SDS011;6474;53.474;9.894;2023-01-28T02:35:08;0.40;;;0.40;;
12818;SDS011;6474;53.474;9.894;2023-01-28T02:37:42;0.33;;;0.33;;
12818;SDS011;6474;53.474;9.894;2023-01-28T02:40:15;2.57;;;0.70;;
12818;SDS011;6474;53.474;9.894;2023-01-28T02:42:48;0.47;;;0.47;;
12818;SDS011;6474;53.474;9.894;2023-01-28T02:45:19;2.57;;;1.13;;
12818;SDS011;6474;53.474;9.894;2023-01-28T02:47:49;0.30;;;0.27;;
12818;SDS011;6474;53.474;9.894;2023-01-28T02:50:25;0.33;;;0.33;;
12818;SDS011;6474;53.474;9.894;2023-01-28T02:53:05;4.53;;;1.20;;
12818;SDS011;6474;53.474;9.894;2023-01-28T02:55:59;0.13;;;0.13;;
12818;SDS011;6474;53.474;9.894;2023-01-28T02:58:34;0.40;;;0.40;;
12818;SDS011;6474;53.474;9.894;2023-01-28T03:01:13;0.40;;;0.40;;
12818;SDS011;6474;53.474;9.894;2023-01-28T03:03:49;0.53;;;0.53;;
12818;SDS011;6474;53.474;9.894;2023-01-28T03:06:24;0.17;;;0.17;;
12818;SDS011;6474;53.474;9.894;2023-01-28T03:08:58;1.90;;;0.70;;
12818;SDS011;6474;53.474;9.894;2023-01-28T03:11:46;0.50;;;0.50;;
12818;SDS011;6474;53.474;9.894;2023-01-28T03:14:35;0.30;;;0.30;;
12818;SDS011;6474;53.474;9.894;2023-01-28T03:17:25;7.73;;;0.60;;
12818;SDS011;6474;53.474;9.894;2023-01-28T03:20:16;0.30;;;0.30;;
12818;SDS011;6474;53.474;9.894;2023-01-28T03:23:05;0.20;;;0.20;;
12818;SDS011;6474;53.474;9.894;2023-01-28T03:25:55;0.30;;;0.30;;
12818;SDS011;6474;53.474;9.894;2023-01-28T03:28:45;0.43;;;0.40;;
12818;SDS011;6474;53.474;9.894;2023-01-28T03:31:32;0.93;;;0.67;;
12818;SDS011;6474;53.474;9.894;2023-01-28T03:34:21;0.20;;;0.20;;
12818;SDS011;6474;53.474;9.894;2023-01-28T03:37:07;0.10;;;0.10;;
12818;SDS011;6474;53.474;9.894;2023-01-28T03:39:36;0.17;;;0.17;;
12818;SDS011;6474;53.474;9.894;2023-01-28T03:42:05;0.20;;;0.20;;
12818;SDS011;6474;53.474;9.894;2023-01-28T03:44:34;2.63;;;0.77;;
12818;SDS011;6474;53.474;9.894;2023-01-28T03:47:21;0.20;;;0.20;;
12818;SDS011;6474;53.474;9.894;2023-01-28T03:49:52;0.40;;;0.40;;
12818;SDS011;6474;53.474;9.894;2023-01-28T03:52:22;0.30;;;0.30;;
12818;SDS011;6474;53.474;9.894;2023-01-28T03:54:51;0.33;;;0.33;;
12818;SDS011;6474;53.474;9.894;2023-01-28T03:57:19;0.30;;;0.30;;
12818;SDS011;6474;53.474;9.894;2023-01-28T03:59:48;0.40;;;0.40;;
12818;SDS011;6474;53.474;9.894;2023-01-28T04:02:18;0.47;;;0.47;;
12818;SDS011;6474;53.474;9.894;2023-01-28T04:04:47;0.40;;;0.40;;
12818;SDS011;6474;53.474;9.894;2023-01-28T04:07:17;1.97;;;0.27;;
12818;SDS011;6474;53.474;9.894;2023-01-28T04:09:45;0.30;;;0.30;;
12818;SDS011;6474;53.474;9.894;2023-01-28T04:12:13;0.10;;;0.10;;
12818;SDS011;6474;53.474;9.894;2023-01-28T04:14:41;0.57;;;0.40;;
12818;SDS011;6474;53.474;9.894;2023-01-28T04:17:09;0.37;;;0.37;;
12818;SDS011;6474;53.474;9.894;2023-01-28T04:19:37;0.20;;;0.20;;
12818;SDS011;6474;53.474;9.894;2023-01-28T04:22:05;0.13;;;0.13;;
12818;SDS011;6474;53.474;9.894;2023-01-28T04:24:37;0.10;;;0.10;;
12818;SDS011;6474;53.474;9.894;2023-01-28T04:27:05;1.43;;;0.83;;
12818;SDS011;6474;53.474;9.894;2023-01-28T04:29:33;0.10;;;0.10;;
12818;SDS011;6474;53.474;9.894;2023-01-28T04:32:01;0.10;;;0.10;;
12818;SDS011;6474;53.474;9.894;2023-01-28T04:34:29;1.90;;;0.33;;
12818;SDS011;6474;53.474;9.894;2023-01-28T04:36:57;0.23;;;0.23;;
12818;SDS011;6474;53.474;9.894;2023-01-28T04:39:24;0.30;;;0.30;;
12818;SDS011;6474;53.474;9.894;2023-01-28T04:41:54;3.30;;;0.33;;
12818;SDS011;6474;53.474;9.894;2023-01-28T04:44:21;0.30;;;0.30;;
12818;SDS011;6474;53.474;9.894;2023-01-28T04:46:49;0.10;;;0.10;;
12818;SDS011;6474;53.474;9.894;2023-01-28T04:49:17;0.47;;;0.43;;
12818;SDS011;6474;53.474;9.894;2023-01-28T04:51:45;0.13;;;0.13;;
12818;SDS011;6474;53.474;9.894;2023-01-28T04:54:12;0.03;;;0.03;;
12818;SDS011;6474;53.474;9.894;2023-01-28T04:56:40;0.13;;;0.13;;
12818;SDS011;6474;53.474;9.894;2023-01-28T04:59:09;0.20;;;0.20;;
12818;SDS011;6474;53.474;9.894;2023-01-28T05:01:37;0.00;;;0.00;;
12818;SDS011;6474;53.474;9.894;2023-01-28T05:04:05;0.30;;;0.30;;
12818;SDS011;6474;53.474;9.894;2023-01-28T05:06:34;0.63;;;0.50;;
12818;SDS011;6474;53.474;9.894;2023-01-28T05:09:02;0.50;;;0.50;;
12818;SDS011;6474;53.474;9.894;2023-01-28T05:11:30;0.77;;;0.60;;
12818;SDS011;6474;53.474;9.894;2023-01-28T05:13:58;0.60;;;0.60;;
12818;SDS011;6474;53.474;9.894;2023-01-28T05:16:27;0.40;;;0.40;;
12818;SDS011;6474;53.474;9.894;2023-01-28T05:18:55;0.23;;;0.23;;
12818;SDS011;6474;53.474;9.894;2023-01-28T05:21:23;0.00;;;0.00;;
12818;SDS011;6474;53.474;9.894;2023-01-28T05:23:50;0.57;;;0.57;;
12818;SDS011;6474;53.474;9.894;2023-01-28T05:26:18;0.40;;;0.40;;
12818;SDS011;6474;53.474;9.894;2023-01-28T05:28:46;0.10;;;0.10;;
12818;SDS011;6474;53.474;9.894;2023-01-28T05:31:14;0.10;;;0.10;;
12818;SDS011;6474;53.474;9.894;2023-01-28T05:33:43;0.23;;;0.23;;
12818;SDS011;6474;53.474;9.894;2023-01-28T05:36:11;1.10;;;0.93;;
12818;SDS011;6474;53.474;9.894;2023-01-28T05:38:39;0.20;;;0.20;;
12818;SDS011;6474;53.474;9.894;2023-01-28T05:41:06;1.07;;;1.07;;
12818;SDS011;6474;53.474;9.894;2023-01-28T05:43:34;1.00;;;0.80;;
12818;SDS011;6474;53.474;9.894;2023-01-28T05:46:02;0.27;;;0.27;;
12818;SDS011;6474;53.474;9.894;2023-01-28T05:48:30;3.70;;;0.93;;
12818;SDS011;6474;53.474;9.894;2023-01-28T05:50:59;0.70;;;0.70;;
12818;SDS011;6474;53.474;9.894;2023-01-28T05:53:27;0.13;;;0.13;;
12818;SDS011;6474;53.474;9.894;2023-01-28T05:55:55;0.93;;;0.30;;
12818;SDS011;6474;53.474;9.894;2023-01-28T05:58:23;1.00;;;0.77;;
12818;SDS011;6474;53.474;9.894;2023-01-28T06:00:53;0.20;;;0.20;;
12818;SDS011;6474;53.474;9.894;2023-01-28T06:03:21;1.97;;;0.43;;
12818;SDS011;6474;53.474;9.894;2023-01-28T06:05:49;0.40;;;0.40;;
12818;SDS011;6474;53.474;9.894;2023-01-28T06:08:18;0.40;;;0.40;;
12818;SDS011;6474;53.474;9.894;2023-01-28T06:10:46;1.03;;;0.60;;
12818;SDS011;6474;53.474;9.894;2023-01-28T06:13:14;2.90;;;0.97;;
12818;SDS011;6474;53.474;9.894;2023-01-28T06:15:41;0.70;;;0.70;;
12818;SDS011;6474;53.474;9.894;2023-01-28T06:18:09;0.50;;;0.50;;
12818;SDS011;6474;53.474;9.894;2023-01-28T06:20:37;0.43;;;0.43;;
12818;SDS011;6474;53.474;9.894;2023-01-28T06:23:05;0.37;;;0.37;;
12818;SDS011;6474;53.474;9.894;2023-01-28T06:25:34;0.27;;;0.27;;
12818;SDS011;6474;53.474;9.894;2023-01-28T06:28:01;0.60;;;0.60;;
12818;SDS011;6474;53.474;9.894;2023-01-28T06:30:29;0.20;;;0.20;;
12818;SDS011;6474;53.474;9.894;2023-01-28T06:32:57;0.50;;;0.50;;
12818;SDS011;6474;53.474;9.894;2023-01-28T06:35:25;0.33;;;0.33;;
12818;SDS011;6474;53.474;9.894;2023-01-28T06:37:53;1.97;;;0.73;;
12818;SDS011;6474;53.474;9.894;2023-01-28T06:40:20;0.27;;;0.27;;
12818;SDS011;6474;53.474;9.894;2023-01-28T06:42:51;0.20;;;0.20;;
12818;SDS011;6474;53.474;9.894;2023-01-28T06:45:19;7.53;;;0.50;;
12818;SDS011;6474;53.474;9.894;2023-01-28T06:47:47;0.63;;;0.47;;
12818;SDS011;6474;53.474;9.894;2023-01-28T06:50:15;0.07;;;0.07;;
12818;SDS011;6474;53.474;9.894;2023-01-28T06:52:43;3.17;;;0.97;;
12818;SDS011;6474;53.474;9.894;2023-01-28T06:55:11;0.13;;;0.13;;
12818;SDS011;6474;53.474;9.894;2023-01-28T06:57:39;0.43;;;0.43;;
12818;SDS011;6474;53.474;9.894;2023-01-28T07:00:10;0.23;;;0.23;;
12818;SDS011;6474;53.474;9.894;2023-01-28T07:02:41;0.47;;;0.47;;
12818;SDS011;6474;53.474;9.894;2023-01-28T07:05:09;2.73;;;0.57;;
12818;SDS011;6474;53.474;9.894;2023-01-28T07:07:37;0.20;;;0.20;;
12818;SDS011;6474;53.474;9.894;2023-01-28T07:10:07;0.40;;;0.40;;
12818;SDS011;6474;53.474;9.894;2023-01-28T07:12:36;0.43;;;0.33;;
12818;SDS011;6474;53.474;9.894;2023-01-28T07:15:04;0.60;;;0.60;;
12818;SDS011;6474;53.474;9.894;2023-01-28T07:17:34;0.10;;;0.10;;
12818;SDS011;6474;53.474;9.894;2023-01-28T07:20:02;0.20;;;0.20;;
12818;SDS011;6474;53.474;9.894;2023-01-28T07:22:31;0.30;;;0.30;;
12818;SDS011;6474;53.474;9.894;2023-01-28T07:24:59;0.20;;;0.20;;
12818;SDS011;6474;53.474;9.894;2023-01-28T07:27:27;0.67;;;0.67;;
12818;SDS011;6474;53.474;9.894;2023-01-28T07:29:54;1.40;;;0.80;;
12818;SDS011;6474;53.474;9.894;2023-01-28T07:32:22;0.43;;;0.43;;
12818;SDS011;6474;53.474;9.894;2023-01-28T07:34:54;0.20;;;0.20;;
12818;SDS011;6474;53.474;9.894;2023-01-28T07:37:22;0.23;;;0.23;;
12818;SDS011;6474;53.474;9.894;2023-01-28T07:39:50;0.50;;;0.50;;
12818;SDS011;6474;53.474;9.894;2023-01-28T07:42:18;0.60;;;0.60;;
12818;SDS011;6474;53.474;9.894;2023-01-28T07:44:46;1.40;;;0.80;;
12818;SDS011;6474;53.474;9.894;2023-01-28T07:47:14;1.03;;;0.77;;
12818;SDS011;6474;53.474;9.894;2023-01-28T07:49:42;0.80;;;0.80;;
12818;SDS011;6474;53.474;9.894;2023-01-28T07:52:11;0.77;;;0.77;;
12818;SDS011;6474;53.474;9.894;2023-01-28T07:54:40;2.17;;;1.30;;
12818;SDS011;6474;53.474;9.894;2023-01-28T07:57:08;5.43;;;0.93;;
12818;SDS011;6474;53.474;9.894;2023-01-28T07:59:36;1.80;;;1.33;;
12818;SDS011;6474;53.474;9.894;2023-01-28T08:02:04;0.73;;;0.73;;
12818;SDS011;6474;53.474;9.894;2023-01-28T08:04:32;1.07;;;1.07;;
12818;SDS011;6474;53.474;9.894;2023-01-28T08:07:00;0.30;;;0.30;;
12818;SDS011;6474;53.474;9.894;2023-01-28T08:09:29;1.90;;;1.53;;
12818;SDS011;6474;53.474;9.894;2023-01-28T08:12:00;1.80;;;1.20;;
12818;SDS011;6474;53.474;9.894;2023-01-28T08:14:28;1.40;;;1.27;;
12818;SDS011;6474;53.474;9.894;2023-01-28T08:16:56;1.47;;;1.10;;
12818;SDS011;6474;53.474;9.894;2023-01-28T08:19:24;1.23;;;1.23;;
12818;SDS011;6474;53.474;9.894;2023-01-28T08:21:52;1.63;;;1.57;;
12818;SDS011;6474;53.474;9.894;2023-01-28T08:24:19;1.17;;;1.17;;
12818;SDS011;6474;53.474;9.894;2023-01-28T08:26:49;1.53;;;1.43;;
12818;SDS011;6474;53.474;9.894;2023-01-28T08:29:16;1.03;;;1.03;;
12818;SDS011;6474;53.474;9.894;2023-01-28T08:31:44;0.77;;;0.77;;
12818;SDS011;6474;53.474;9.894;2023-01-28T08:34:12;1.33;;;1.00;;
12818;SDS011;6474;53.474;9.894;2023-01-28T08:36:40;1.03;;;0.97;;
12818;SDS011;6474;53.474;9.894;2023-01-28T08:39:08;1.60;;;1.60;;
12818;SDS011;6474;53.474;9.894;2023-01-28T08:41:36;4.23;;;1.00;;
12818;SDS011;6474;53.474;9.894;2023-01-28T08:44:05;1.80;;;1.67;;
12818;SDS011;6474;53.474;9.894;2023-01-28T08:46:33;2.00;;;1.40;;
12818;SDS011;6474;53.474;9.894;2023-01-28T08:49:00;1.27;;;1.27;;
12818;SDS011;6474;53.474;9.894;2023-01-28T08:51:28;0.90;;;0.90;;
12818;SDS011;6474;53.474;9.894;2023-01-28T08:53:56;4.40;;;1.47;;
12818;SDS011;6474;53.474;9.894;2023-01-28T08:56:24;1.07;;;1.07;;
12818;SDS011;6474;53.474;9.894;2023-01-28T08:58:55;3.93;;;1.00;;
12818;SDS011;6474;53.474;9.894;2023-01-28T09:01:25;1.50;;;1.40;;
12818;SDS011;6474;53.474;9.894;2023-01-28T09:03:54;1.57;;;1.47;;
12818;SDS011;6474;53.474;9.894;2023-01-28T09:06:23;1.90;;;1.80;;
12818;SDS011;6474;53.474;9.894;2023-01-28T09:08:50;1.47;;;1.33;;
12818;SDS011;6474;53.474;9.894;2023-01-28T09:11:18;1.30;;;1.30;;
12818;SDS011;6474;53.474;9.894;2023-01-28T09:13:46;1.53;;;1.50;;
12818;SDS011;6474;53.474;9.894;2023-01-28T09:16:14;3.20;;;1.50;;
12818;SDS011;6474;53.474;9.894;2023-01-28T09:18:44;1.80;;;1.70;;
12818;SDS011;6474;53.474;9.894;2023-01-28T09:21:13;1.07;;;1.07;;
12818;SDS011;6474;53.474;9.894;2023-01-28T09:23:41;1.20;;;1.20;;
12818;SDS011;6474;53.474;9.894;2023-01-28T09:26:09;1.30;;;1.30;;
12818;SDS011;6474;53.474;9.894;2023-01-28T09:28:37;1.67;;;1.57;;
12818;SDS011;6474;53.474;9.894;2023-01-28T09:31:06;3.40;;;1.67;;
12818;SDS011;6474;53.474;9.894;2023-01-28T09:33:36;1.87;;;1.43;;
12818;SDS011;6474;53.474;9.894;2023-01-28T09:36:08;2.73;;;2.53;;
12818;SDS011;6474;53.474;9.894;2023-01-28T09:38:37;5.93;;;3.10;;
12818;SDS011;6474;53.474;9.894;2023-01-28T09:41:10;4.40;;;3.23;;
12818;SDS011;6474;53.474;9.894;2023-01-28T09:43:52;3.10;;;2.90;;
12818;SDS011;6474;53.474;9.894;2023-01-28T09:46:39;1.70;;;1.70;;
12818;SDS011;6474;53.474;9.894;2023-01-28T09:49:14;2.80;;;2.60;;
12818;SDS011;6474;53.474;9.894;2023-01-28T09:51:48;3.10;;;2.50;;
12818;SDS011;6474;53.474;9.894;2023-01-28T09:54:23;2.00;;;1.93;;
12818;SDS011;6474;53.474;9.894;2023-01-28T09:56:57;8.43;;;2.50;;
12818;SDS011;6474;53.474;9.894;2023-01-28T09:59:31;4.40;;;2.83;;
12818;SDS011;6474;53.474;9.894;2023-01-28T10:02:02;1.97;;;1.97;;
12818;SDS011;6474;53.474;9.894;2023-01-28T10:04:43;5.03;;;2.60;;
12818;SDS011;6474;53.474;9.894;2023-01-28T10:07:25;2.70;;;2.50;;
12818;SDS011;6474;53.474;9.894;2023-01-28T10:10:02;1.27;;;1.27;;
12818;SDS011;6474;53.474;9.894;2023-01-28T10:12:41;1.57;;;1.57;;
12818;SDS011;6474;53.474;9.894;2023-01-28T10:18:21;1.30;;;1.30;;
12818;SDS011;6474;53.474;9.894;2023-01-28T10:20:58;2.77;;;1.90;;
12818;SDS011;6474;53.474;9.894;2023-01-28T10:23:35;1.90;;;1.80;;
12818;SDS011;6474;53.474;9.894;2023-01-28T10:26:21;1.37;;;1.37;;
12818;SDS011;6474;53.474;9.894;2023-01-28T10:28:52;1.23;;;1.23;;
12818;SDS011;6474;53.474;9.894;2023-01-28T10:31:22;1.40;;;1.40;;
12818;SDS011;6474;53.474;9.894;2023-01-28T10:33:57;2.73;;;2.13;;
12818;SDS011;6474;53.474;9.894;2023-01-28T10:36:25;3.30;;;2.70;;
12818;SDS011;6474;53.474;9.894;2023-01-28T10:38:54;2.73;;;2.23;;
12818;SDS011;6474;53.474;9.894;2023-01-28T10:41:22;2.30;;;2.10;;
12818;SDS011;6474;53.474;9.894;2023-01-28T10:43:51;2.03;;;2.00;;
12818;SDS011;6474;53.474;9.894;2023-01-28T10:46:20;1.80;;;1.80;;
12818;SDS011;6474;53.474;9.894;2023-01-28T10:48:54;2.83;;;2.57;;
12818;SDS011;6474;53.474;9.894;2023-01-28T10:51:29;2.13;;;2.03;;
12818;SDS011;6474;53.474;9.894;2023-01-28T10:54:00;1.97;;;1.97;;
12818;SDS011;6474;53.474;9.894;2023-01-28T10:56:29;1.37;;;1.37;;
12818;SDS011;6474;53.474;9.894;2023-01-28T10:58:59;2.03;;;2.00;;
12818;SDS011;6474;53.474;9.894;2023-01-28T11:01:38;1.97;;;1.87;;
12818;SDS011;6474;53.474;9.894;2023-01-28T11:04:17;1.90;;;1.83;;
12818;SDS011;6474;53.474;9.894;2023-01-28T11:06:56;1.87;;;1.87;;
12818;SDS011;6474;53.474;9.894;2023-01-28T11:09:28;3.07;;;2.30;;
12818;SDS011;6474;53.474;9.894;2023-01-28T11:11:57;2.40;;;2.37;;
12818;SDS011;6474;53.474;9.894;2023-01-28T11:14:36;2.50;;;2.30;;
12818;SDS011;6474;53.474;9.894;2023-01-28T11:17:04;1.67;;;1.67;;
12818;SDS011;6474;53.474;9.894;2023-01-28T11:19:39;1.87;;;1.87;;
12818;SDS011;6474;53.474;9.894;2023-01-28T11:22:13;1.77;;;1.77;;
12818;SDS011;6474;53.474;9.894;2023-01-28T11:25:01;11.97;;;1.87;;
12818;SDS011;6474;53.474;9.894;2023-01-28T11:27:31;1.80;;;1.80;;
12818;SDS011;6474;53.474;9.894;2023-01-28T11:30:00;1.37;;;1.37;;
12818;SDS011;6474;53.474;9.894;2023-01-28T11:32:30;2.33;;;2.23;;
12818;SDS011;6474;53.474;9.894;2023-01-28T11:34:58;15.97;;;2.73;;
12818;SDS011;6474;53.474;9.894;2023-01-28T11:37:27;1.70;;;1.63;;
12818;SDS011;6474;53.474;9.894;2023-01-28T11:40:02;4.10;;;3.70;;
12818;SDS011;6474;53.474;9.894;2023-01-28T11:42:47;8.53;;;4.40;;
12818;SDS011;6474;53.474;9.894;2023-01-28T11:45:16;15.83;;;7.33;;
12818;SDS011;6474;53.474;9.894;2023-01-28T11:47:49;2.90;;;2.63;;
12818;SDS011;6474;53.474;9.894;2023-01-28T11:50:32;1.67;;;1.67;;
12818;SDS011;6474;53.474;9.894;2023-01-28T11:53:15;2.13;;;1.83;;
12818;SDS011;6474;53.474;9.894;2023-01-28T11:56:11;1.53;;;1.53;;
12818;SDS011;6474;53.474;9.894;2023-01-28T11:58:50;3.60;;;2.37;;
12818;SDS011;6474;53.474;9.894;2023-01-28T12:01:28;9.03;;;5.77;;
12818;SDS011;6474;53.474;9.894;2023-01-28T12:04:08;2.47;;;2.20;;
12818;SDS011;6474;53.474;9.894;2023-01-28T12:06:48;2.20;;;2.20;;
12818;SDS011;6474;53.474;9.894;2023-01-28T12:09:28;3.03;;;2.10;;
12818;SDS011;6474;53.474;9.894;2023-01-28T12:12:10;1.90;;;1.80;;
12818;SDS011;6474;53.474;9.894;2023-01-28T12:14:59;2.57;;;2.47;;
12818;SDS011;6474;53.474;9.894;2023-01-28T12:17:40;14.07;;;4.80;;
12818;SDS011;6474;53.474;9.894;2023-01-28T12:20:17;6.13;;;4.70;;
12818;SDS011;6474;53.474;9.894;2023-01-28T12:22:58;4.83;;;4.43;;
12818;SDS011;6474;53.474;9.894;2023-01-28T12:25:49;2.27;;;2.17;;
12818;SDS011;6474;53.474;9.894;2023-01-28T12:28:33;9.97;;;2.70;;
12818;SDS011;6474;53.474;9.894;2023-01-28T12:31:18;2.17;;;2.07;;
12818;SDS011;6474;53.474;9.894;2023-01-28T12:34:08;3.33;;;3.13;;
12818;SDS011;6474;53.474;9.894;2023-01-28T12:36:53;3.50;;;3.30;;
12818;SDS011;6474;53.474;9.894;2023-01-28T12:39:32;9.33;;;3.07;;
12818;SDS011;6474;53.474;9.894;2023-01-28T12:42:09;4.97;;;3.07;;
12818;SDS011;6474;53.474;9.894;2023-01-28T12:44:41;3.77;;;3.43;;
12818;SDS011;6474;53.474;9.894;2023-01-28T12:47:15;2.33;;;2.23;;
12818;SDS011;6474;53.474;9.894;2023-01-28T12:49:47;7.30;;;2.80;;
12818;SDS011;6474;53.474;9.894;2023-01-28T12:52:23;4.30;;;3.90;;
12818;SDS011;6474;53.474;9.894;2023-01-28T12:54:57;4.47;;;4.07;;
12818;SDS011;6474;53.474;9.894;2023-01-28T12:57:31;5.57;;;3.30;;
12818;SDS011;6474;53.474;9.894;2023-01-28T13:00:04;2.20;;;2.10;;
12818;SDS011;6474;53.474;9.894;2023-01-28T13:02:51;4.23;;;3.23;;
12818;SDS011;6474;53.474;9.894;2023-01-28T13:05:30;5.77;;;3.53;;
12818;SDS011;6474;53.474;9.894;2023-01-28T13:08:03;3.87;;;3.67;;
12818;SDS011;6474;53.474;9.894;2023-01-28T13:10:39;4.10;;;3.07;;
12818;SDS011;6474;53.474;9.894;2023-01-28T13:13:12;2.80;;;2.70;;
12818;SDS011;6474;53.474;9.894;2023-01-28T13:15:47;2.40;;;2.20;;
12818;SDS011;6474;53.474;9.894;2023-01-28T13:18:32;2.80;;;2.60;;
12818;SDS011;6474;53.474;9.894;2023-01-28T13:21:11;5.27;;;3.20;;
12818;SDS011;6474;53.474;9.894;2023-01-28T13:23:45;3.73;;;3.33;;
12818;SDS011;6474;53.474;9.894;2023-01-28T13:26:28;2.77;;;2.63;;
12818;SDS011;6474;53.474;9.894;2023-01-28T13:29:07;3.77;;;3.17;;
12818;SDS011;6474;53.474;9.894;2023-01-28T13:31:48;3.37;;;3.17;;
12818;SDS011;6474;53.474;9.894;2023-01-28T13:34:28;4.43;;;4.13;;
12818;SDS011;6474;53.474;9.894;2023-01-28T13:37:03;5.20;;;3.43;;
12818;SDS011;6474;53.474;9.894;2023-01-28T13:39:45;3.10;;;2.90;;
12818;SDS011;6474;53.474;9.894;2023-01-28T13:42:22;3.47;;;3.17;;
12818;SDS011;6474;53.474;9.894;2023-01-28T13:44:54;3.23;;;3.03;;
12818;SDS011;6474;53.474;9.894;2023-01-28T13:47:25;3.93;;;3.57;;
12818;SDS011;6474;53.474;9.894;2023-01-28T13:49:59;6.57;;;4.63;;
12818;SDS011;6474;53.474;9.894;2023-01-28T13:52:31;4.37;;;4.07;;
12818;SDS011;6474;53.474;9.894;2023-01-28T13:55:04;7.10;;;5.53;;
12818;SDS011;6474;53.474;9.894;2023-01-28T13:58:10;4.97;;;3.77;;
12818;SDS011;6474;53.474;9.894;2023-01-28T14:04:05;7.23;;;3.97;;
12818;SDS011;6474;53.474;9.894;2023-01-28T14:07:02;3.53;;;3.20;;
12818;SDS011;6474;53.474;9.894;2023-01-28T14:09:48;3.47;;;3.27;;
12818;SDS011;6474;53.474;9.894;2023-01-28T14:12:36;4.97;;;3.17;;
12818;SDS011;6474;53.474;9.894;2023-01-28T14:15:31;4.47;;;3.80;;
12818;SDS011;6474;53.474;9.894;2023-01-28T14:18:13;4.27;;;3.80;;
12818;SDS011;6474;53.474;9.894;2023-01-28T14:20:50;4.43;;;4.03;;
12818;SDS011;6474;53.474;9.894;2023-01-28T14:23:20;4.43;;;4.03;;
12818;SDS011;6474;53.474;9.894;2023-01-28T14:25:55;8.43;;;4.43;;
12818;SDS011;6474;53.474;9.894;2023-01-28T14:28:38;5.37;;;4.87;;
12818;SDS011;6474;53.474;9.894;2023-01-28T14:31:17;6.93;;;4.47;;
12818;SDS011;6474;53.474;9.894;2023-01-28T14:33:53;3.67;;;2.77;;
12818;SDS011;6474;53.474;9.894;2023-01-28T14:36:23;5.57;;;2.83;;
12818;SDS011;6474;53.474;9.894;2023-01-28T14:38:52;3.20;;;2.93;;
12818;SDS011;6474;53.474;9.894;2023-01-28T14:41:24;7.87;;;3.53;;
12818;SDS011;6474;53.474;9.894;2023-01-28T14:43:53;4.33;;;3.93;;
12818;SDS011;6474;53.474;9.894;2023-01-28T14:46:27;3.80;;;3.43;;
12818;SDS011;6474;53.474;9.894;2023-01-28T14:49:06;5.27;;;3.90;;
12818;SDS011;6474;53.474;9.894;2023-01-28T14:51:56;3.97;;;3.60;;
12818;SDS011;6474;53.474;9.894;2023-01-28T14:54:44;4.57;;;3.53;;
12818;SDS011;6474;53.474;9.894;2023-01-28T14:57:20;3.87;;;3.20;;
12818;SDS011;6474;53.474;9.894;2023-01-28T15:00:13;12.83;;;4.57;;
12818;SDS011;6474;53.474;9.894;2023-01-28T15:02:45;9.77;;;3.17;;
12818;SDS011;6474;53.474;9.894;2023-01-28T15:05:14;3.33;;;3.03;;
12818;SDS011;6474;53.474;9.894;2023-01-28T15:07:45;9.97;;;3.47;;
12818;SDS011;6474;53.474;9.894;2023-01-28T15:10:15;3.93;;;3.47;;
12818;SDS011;6474;53.474;9.894;2023-01-28T15:12:47;4.53;;;3.27;;
12818;SDS011;6474;53.474;9.894;2023-01-28T15:15:20;4.37;;;4.07;;
12818;SDS011;6474;53.474;9.894;2023-01-28T15:17:55;5.53;;;3.93;;
12818;SDS011;6474;53.474;9.894;2023-01-28T15:20:26;5.13;;;4.07;;
12818;SDS011;6474;53.474;9.894;2023-01-28T15:22:56;6.17;;;4.13;;
12818;SDS011;6474;53.474;9.894;2023-01-28T15:25:27;3.43;;;3.23;;
12818;SDS011;6474;53.474;9.894;2023-01-28T15:27:58;3.07;;;2.83;;
12818;SDS011;6474;53.474;9.894;2023-01-28T15:30:30;6.03;;;3.30;;
12818;SDS011;6474;53.474;9.894;2023-01-28T15:32:59;3.50;;;3.20;;
12818;SDS011;6474;53.474;9.894;2023-01-28T15:35:29;3.97;;;3.00;;
12818;SDS011;6474;53.474;9.894;2023-01-28T15:37:59;6.20;;;3.47;;
12818;SDS011;6474;53.474;9.894;2023-01-28T15:40:30;2.57;;;2.37;;